sensor_id;sensor_type;location;lat;lon;timestamp;P1;durP1;ratioP1;P2;durP2;ratioP2
7917;SDS011;4004;42.624;23.386;2023-11-21T00:00:15;5.73;;;3.00;;
7917;SDS011;4004;42.624;23.386;2023-11-21T00:02:43;3.13;;;2.43;;
7917;SDS011;4004;42.624;23.386;2023-11-21T00:05:13;4.53;;;2.90;;
7917;SDS011;4004;42.624;23.386;2023-11-21T00:07:41;3.47;;;2.33;;
7917;SDS011;4004;42.624;23.386;2023-11-21T00:10:08;4.37;;;2.80;;
7917;SDS011;4004;42.624;23.386;2023-11-21T00:12:36;4.17;;;2.20;;
7917;SDS011;4004;42.624;23.386;2023-11-21T00:15:04;4.87;;;3.40;;
7917;SDS011;4004;42.624;23.386;2023-11-21T00:17:34;4.87;;;2.87;;
7917;SDS011;4004;42.624;23.386;2023-11-21T00:20:01;3.80;;;2.80;;
7917;SDS011;4004;42.624;23.386;2023-11-21T00:22:32;3.43;;;2.87;;
7917;SDS011;4004;42.624;23.386;2023-11-21T00:25:00;3.40;;;2.63;;
7917;SDS011;4004;42.624;23.386;2023-11-21T00:27:28;3.87;;;3.07;;
7917;SDS011;4004;42.624;23.386;2023-11-21T00:29:55;4.53;;;2.70;;
7917;SDS011;4004;42.624;23.386;2023-11-21T00:32:22;4.40;;;3.07;;
7917;SDS011;4004;42.624;23.386;2023-11-21T00:34:49;5.00;;;2.97;;
7917;SDS011;4004;42.624;23.386;2023-11-21T00:37:15;6.80;;;2.97;;
7917;SDS011;4004;42.624;23.386;2023-11-21T00:39:44;6.50;;;3.10;;
7917;SDS011;4004;42.624;23.386;2023-11-21T00:42:11;3.50;;;2.57;;
7917;SDS011;4004;42.624;23.386;2023-11-21T00:44:37;4.80;;;2.70;;
7917;SDS011;4004;42.624;23.386;2023-11-21T00:47:05;5.17;;;3.53;;
7917;SDS011;4004;42.624;23.386;2023-11-21T00:49:33;3.67;;;2.70;;
7917;SDS011;4004;42.624;23.386;2023-11-21T00:52:00;3.63;;;2.93;;
7917;SDS011;4004;42.624;23.386;2023-11-21T00:54:28;3.50;;;2.80;;
7917;SDS011;4004;42.624;23.386;2023-11-21T00:56:56;3.53;;;2.80;;
7917;SDS011;4004;42.624;23.386;2023-11-21T00:59:22;5.13;;;3.40;;
7917;SDS011;4004;42.624;23.386;2023-11-21T01:01:49;4.47;;;2.93;;
7917;SDS011;4004;42.624;23.386;2023-11-21T01:04:16;5.57;;;2.83;;
7917;SDS011;4004;42.624;23.386;2023-11-21T01:06:43;5.27;;;3.87;;
7917;SDS011;4004;42.624;23.386;2023-11-21T01:09:10;6.27;;;3.70;;
7917;SDS011;4004;42.624;23.386;2023-11-21T01:11:37;4.17;;;2.63;;
7917;SDS011;4004;42.624;23.386;2023-11-21T01:14:06;3.40;;;2.43;;
7917;SDS011;4004;42.624;23.386;2023-11-21T01:16:34;3.67;;;2.50;;
7917;SDS011;4004;42.624;23.386;2023-11-21T01:19:01;5.60;;;2.60;;
7917;SDS011;4004;42.624;23.386;2023-11-21T01:21:29;3.20;;;2.70;;
7917;SDS011;4004;42.624;23.386;2023-11-21T01:23:56;3.27;;;2.67;;
7917;SDS011;4004;42.624;23.386;2023-11-21T01:26:22;4.57;;;2.77;;
7917;SDS011;4004;42.624;23.386;2023-11-21T01:28:49;4.53;;;2.80;;
7917;SDS011;4004;42.624;23.386;2023-11-21T01:31:17;3.93;;;2.63;;
7917;SDS011;4004;42.624;23.386;2023-11-21T01:33:45;3.40;;;2.67;;
7917;SDS011;4004;42.624;23.386;2023-11-21T01:36:12;4.30;;;2.80;;
7917;SDS011;4004;42.624;23.386;2023-11-21T01:38:39;4.53;;;2.97;;
7917;SDS011;4004;42.624;23.386;2023-11-21T01:41:05;4.87;;;2.87;;
7917;SDS011;4004;42.624;23.386;2023-11-21T01:43:32;3.07;;;2.50;;
7917;SDS011;4004;42.624;23.386;2023-11-21T01:45:59;5.73;;;2.77;;
7917;SDS011;4004;42.624;23.386;2023-11-21T01:48:27;3.00;;;2.70;;
7917;SDS011;4004;42.624;23.386;2023-11-21T01:50:55;3.07;;;2.50;;
7917;SDS011;4004;42.624;23.386;2023-11-21T01:53:23;3.50;;;2.60;;
7917;SDS011;4004;42.624;23.386;2023-11-21T01:55:50;5.20;;;3.40;;
7917;SDS011;4004;42.624;23.386;2023-11-21T01:58:18;7.53;;;3.90;;
7917;SDS011;4004;42.624;23.386;2023-11-21T02:00:46;4.17;;;3.37;;
7917;SDS011;4004;42.624;23.386;2023-11-21T02:03:16;5.40;;;3.40;;
7917;SDS011;4004;42.624;23.386;2023-11-21T02:05:44;5.73;;;3.03;;
7917;SDS011;4004;42.624;23.386;2023-11-21T02:08:11;4.93;;;3.70;;
7917;SDS011;4004;42.624;23.386;2023-11-21T02:10:38;5.73;;;3.87;;
7917;SDS011;4004;42.624;23.386;2023-11-21T02:13:05;4.23;;;3.30;;
7917;SDS011;4004;42.624;23.386;2023-11-21T02:15:32;4.50;;;2.90;;
7917;SDS011;4004;42.624;23.386;2023-11-21T02:17:59;5.47;;;3.20;;
7917;SDS011;4004;42.624;23.386;2023-11-21T02:20:28;5.00;;;2.87;;
7917;SDS011;4004;42.624;23.386;2023-11-21T02:22:56;4.00;;;2.60;;
7917;SDS011;4004;42.624;23.386;2023-11-21T02:25:24;3.60;;;2.70;;
7917;SDS011;4004;42.624;23.386;2023-11-21T02:27:52;3.33;;;2.97;;
7917;SDS011;4004;42.624;23.386;2023-11-21T02:30:20;4.00;;;2.67;;
7917;SDS011;4004;42.624;23.386;2023-11-21T02:32:47;4.70;;;2.80;;
7917;SDS011;4004;42.624;23.386;2023-11-21T02:35:14;4.40;;;2.87;;
7917;SDS011;4004;42.624;23.386;2023-11-21T02:37:41;4.67;;;2.90;;
7917;SDS011;4004;42.624;23.386;2023-11-21T02:40:10;5.90;;;3.10;;
7917;SDS011;4004;42.624;23.386;2023-11-21T02:42:38;4.30;;;2.87;;
7917;SDS011;4004;42.624;23.386;2023-11-21T02:45:06;5.93;;;3.20;;
7917;SDS011;4004;42.624;23.386;2023-11-21T02:47:34;6.07;;;3.53;;
7917;SDS011;4004;42.624;23.386;2023-11-21T02:50:01;4.63;;;3.37;;
7917;SDS011;4004;42.624;23.386;2023-11-21T02:52:27;7.87;;;4.40;;
7917;SDS011;4004;42.624;23.386;2023-11-21T02:54:54;10.03;;;5.03;;
7917;SDS011;4004;42.624;23.386;2023-11-21T02:57:22;8.03;;;3.97;;
7917;SDS011;4004;42.624;23.386;2023-11-21T02:59:49;5.67;;;3.80;;
7917;SDS011;4004;42.624;23.386;2023-11-21T03:02:16;5.53;;;3.70;;
7917;SDS011;4004;42.624;23.386;2023-11-21T03:04:43;5.10;;;3.23;;
7917;SDS011;4004;42.624;23.386;2023-11-21T03:07:09;4.20;;;3.10;;
7917;SDS011;4004;42.624;23.386;2023-11-21T03:09:36;5.23;;;3.30;;
7917;SDS011;4004;42.624;23.386;2023-11-21T03:12:04;6.73;;;3.20;;
7917;SDS011;4004;42.624;23.386;2023-11-21T03:14:32;4.37;;;3.17;;
7917;SDS011;4004;42.624;23.386;2023-11-21T03:16:59;3.67;;;3.00;;
7917;SDS011;4004;42.624;23.386;2023-11-21T03:19:26;3.63;;;2.50;;
7917;SDS011;4004;42.624;23.386;2023-11-21T03:21:53;5.47;;;3.23;;
7917;SDS011;4004;42.624;23.386;2023-11-21T03:24:20;8.03;;;3.13;;
7917;SDS011;4004;42.624;23.386;2023-11-21T03:26:47;3.40;;;2.60;;
7917;SDS011;4004;42.624;23.386;2023-11-21T03:29:15;4.50;;;2.90;;
7917;SDS011;4004;42.624;23.386;2023-11-21T03:31:43;6.40;;;3.07;;
7917;SDS011;4004;42.624;23.386;2023-11-21T03:34:14;6.23;;;3.00;;
7917;SDS011;4004;42.624;23.386;2023-11-21T03:36:43;5.60;;;2.90;;
7917;SDS011;4004;42.624;23.386;2023-11-21T03:39:11;6.67;;;3.07;;
7917;SDS011;4004;42.624;23.386;2023-11-21T03:41:38;4.70;;;3.10;;
7917;SDS011;4004;42.624;23.386;2023-11-21T03:44:05;2.70;;;2.33;;
7917;SDS011;4004;42.624;23.386;2023-11-21T03:46:31;7.23;;;4.77;;
7917;SDS011;4004;42.624;23.386;2023-11-21T03:49:00;6.37;;;4.63;;
7917;SDS011;4004;42.624;23.386;2023-11-21T03:51:26;13.77;;;8.67;;
7917;SDS011;4004;42.624;23.386;2023-11-21T03:53:53;18.93;;;12.63;;
7917;SDS011;4004;42.624;23.386;2023-11-21T03:56:20;15.57;;;10.57;;
7917;SDS011;4004;42.624;23.386;2023-11-21T03:58:47;14.37;;;9.60;;
7917;SDS011;4004;42.624;23.386;2023-11-21T04:01:19;15.60;;;11.07;;
7917;SDS011;4004;42.624;23.386;2023-11-21T04:03:47;12.87;;;9.63;;
7917;SDS011;4004;42.624;23.386;2023-11-21T04:06:16;12.73;;;9.83;;
7917;SDS011;4004;42.624;23.386;2023-11-21T04:08:43;14.07;;;9.93;;
7917;SDS011;4004;42.624;23.386;2023-11-21T04:11:10;14.97;;;9.23;;
7917;SDS011;4004;42.624;23.386;2023-11-21T04:13:38;9.73;;;7.07;;
7917;SDS011;4004;42.624;23.386;2023-11-21T04:16:05;7.90;;;4.93;;
7917;SDS011;4004;42.624;23.386;2023-11-21T04:18:33;5.73;;;4.27;;
7917;SDS011;4004;42.624;23.386;2023-11-21T04:20:59;4.37;;;3.10;;
7917;SDS011;4004;42.624;23.386;2023-11-21T04:23:29;5.57;;;3.87;;
7917;SDS011;4004;42.624;23.386;2023-11-21T04:25:56;5.10;;;3.50;;
7917;SDS011;4004;42.624;23.386;2023-11-21T04:28:24;4.87;;;3.50;;
7917;SDS011;4004;42.624;23.386;2023-11-21T04:30:50;8.17;;;4.70;;
7917;SDS011;4004;42.624;23.386;2023-11-21T04:33:17;6.90;;;4.57;;
7917;SDS011;4004;42.624;23.386;2023-11-21T04:35:44;9.40;;;5.93;;
7917;SDS011;4004;42.624;23.386;2023-11-21T04:38:11;7.10;;;5.13;;
7917;SDS011;4004;42.624;23.386;2023-11-21T04:40:39;5.30;;;4.33;;
7917;SDS011;4004;42.624;23.386;2023-11-21T04:43:06;5.53;;;4.40;;
7917;SDS011;4004;42.624;23.386;2023-11-21T04:45:33;6.27;;;4.13;;
7917;SDS011;4004;42.624;23.386;2023-11-21T04:47:59;7.13;;;4.43;;
7917;SDS011;4004;42.624;23.386;2023-11-21T04:50:26;5.13;;;3.97;;
7917;SDS011;4004;42.624;23.386;2023-11-21T04:52:53;5.10;;;3.17;;
7917;SDS011;4004;42.624;23.386;2023-11-21T04:55:20;4.57;;;3.10;;
7917;SDS011;4004;42.624;23.386;2023-11-21T04:57:48;3.57;;;3.20;;
7917;SDS011;4004;42.624;23.386;2023-11-21T05:00:15;6.53;;;3.40;;
7917;SDS011;4004;42.624;23.386;2023-11-21T05:02:42;5.20;;;3.60;;
7917;SDS011;4004;42.624;23.386;2023-11-21T05:05:09;5.63;;;3.47;;
7917;SDS011;4004;42.624;23.386;2023-11-21T05:07:36;3.60;;;3.30;;
7917;SDS011;4004;42.624;23.386;2023-11-21T05:10:04;4.77;;;3.33;;
7917;SDS011;4004;42.624;23.386;2023-11-21T05:12:33;6.87;;;3.20;;
7917;SDS011;4004;42.624;23.386;2023-11-21T05:15:02;7.27;;;3.67;;
7917;SDS011;4004;42.624;23.386;2023-11-21T05:17:34;3.67;;;2.83;;
7917;SDS011;4004;42.624;23.386;2023-11-21T05:20:01;3.83;;;2.67;;
7917;SDS011;4004;42.624;23.386;2023-11-21T05:22:29;4.10;;;3.00;;
7917;SDS011;4004;42.624;23.386;2023-11-21T05:24:56;4.70;;;2.90;;
7917;SDS011;4004;42.624;23.386;2023-11-21T05:27:24;4.30;;;3.17;;
7917;SDS011;4004;42.624;23.386;2023-11-21T05:29:51;5.73;;;3.13;;
7917;SDS011;4004;42.624;23.386;2023-11-21T05:32:19;10.90;;;3.47;;
7917;SDS011;4004;42.624;23.386;2023-11-21T05:34:46;7.23;;;3.87;;
7917;SDS011;4004;42.624;23.386;2023-11-21T05:37:12;4.63;;;3.03;;
7917;SDS011;4004;42.624;23.386;2023-11-21T05:39:39;7.57;;;3.60;;
7917;SDS011;4004;42.624;23.386;2023-11-21T05:42:06;6.60;;;3.50;;
7917;SDS011;4004;42.624;23.386;2023-11-21T05:44:34;6.83;;;4.23;;
7917;SDS011;4004;42.624;23.386;2023-11-21T05:47:01;4.53;;;3.50;;
7917;SDS011;4004;42.624;23.386;2023-11-21T05:49:30;5.60;;;3.50;;
7917;SDS011;4004;42.624;23.386;2023-11-21T05:51:57;7.20;;;3.70;;
7917;SDS011;4004;42.624;23.386;2023-11-21T05:54:24;4.93;;;3.53;;
7917;SDS011;4004;42.624;23.386;2023-11-21T05:56:51;6.27;;;3.43;;
7917;SDS011;4004;42.624;23.386;2023-11-21T05:59:18;8.83;;;3.57;;
7917;SDS011;4004;42.624;23.386;2023-11-21T06:01:46;4.90;;;3.57;;
7917;SDS011;4004;42.624;23.386;2023-11-21T06:04:13;5.97;;;3.10;;
7917;SDS011;4004;42.624;23.386;2023-11-21T06:06:41;7.63;;;4.03;;
7917;SDS011;4004;42.624;23.386;2023-11-21T06:09:07;5.63;;;3.23;;
7917;SDS011;4004;42.624;23.386;2023-11-21T06:11:34;7.50;;;3.73;;
7917;SDS011;4004;42.624;23.386;2023-11-21T06:14:01;8.80;;;3.97;;
7917;SDS011;4004;42.624;23.386;2023-11-21T06:16:28;11.77;;;4.10;;
7917;SDS011;4004;42.624;23.386;2023-11-21T06:18:55;8.90;;;4.73;;
7917;SDS011;4004;42.624;23.386;2023-11-21T06:21:22;14.57;;;4.60;;
7917;SDS011;4004;42.624;23.386;2023-11-21T06:23:50;11.40;;;4.83;;
7917;SDS011;4004;42.624;23.386;2023-11-21T06:26:18;12.23;;;6.10;;
7917;SDS011;4004;42.624;23.386;2023-11-21T06:28:45;17.73;;;8.30;;
7917;SDS011;4004;42.624;23.386;2023-11-21T06:31:12;13.03;;;8.80;;
7917;SDS011;4004;42.624;23.386;2023-11-21T06:33:58;16.73;;;8.17;;
7917;SDS011;4004;42.624;23.386;2023-11-21T06:36:25;14.87;;;9.23;;
7917;SDS011;4004;42.624;23.386;2023-11-21T06:38:54;18.87;;;9.57;;
7917;SDS011;4004;42.624;23.386;2023-11-21T06:41:20;18.77;;;13.07;;
7917;SDS011;4004;42.624;23.386;2023-11-21T06:43:47;32.73;;;14.03;;
7917;SDS011;4004;42.624;23.386;2023-11-21T06:46:14;24.43;;;13.10;;
7917;SDS011;4004;42.624;23.386;2023-11-21T06:48:42;24.70;;;12.87;;
7917;SDS011;4004;42.624;23.386;2023-11-21T06:51:09;23.27;;;13.77;;
7917;SDS011;4004;42.624;23.386;2023-11-21T06:53:36;16.40;;;12.33;;
7917;SDS011;4004;42.624;23.386;2023-11-21T06:56:05;24.83;;;13.73;;
7917;SDS011;4004;42.624;23.386;2023-11-21T06:58:41;21.97;;;13.00;;
7917;SDS011;4004;42.624;23.386;2023-11-21T07:01:10;28.43;;;14.20;;
7917;SDS011;4004;42.624;23.386;2023-11-21T07:03:37;26.13;;;15.10;;
7917;SDS011;4004;42.624;23.386;2023-11-21T07:06:04;24.27;;;13.07;;
7917;SDS011;4004;42.624;23.386;2023-11-21T07:08:31;16.60;;;12.27;;
7917;SDS011;4004;42.624;23.386;2023-11-21T07:10:59;27.20;;;12.83;;
7917;SDS011;4004;42.624;23.386;2023-11-21T07:13:27;18.17;;;11.37;;
7917;SDS011;4004;42.624;23.386;2023-11-21T07:15:54;21.37;;;10.87;;
7917;SDS011;4004;42.624;23.386;2023-11-21T07:18:21;24.20;;;10.77;;
7917;SDS011;4004;42.624;23.386;2023-11-21T07:20:48;16.23;;;10.00;;
7917;SDS011;4004;42.624;23.386;2023-11-21T07:23:14;21.20;;;9.40;;
7917;SDS011;4004;42.624;23.386;2023-11-21T07:25:41;18.77;;;11.17;;
7917;SDS011;4004;42.624;23.386;2023-11-21T07:28:08;14.43;;;8.13;;
7917;SDS011;4004;42.624;23.386;2023-11-21T07:30:36;20.57;;;8.40;;
7917;SDS011;4004;42.624;23.386;2023-11-21T07:33:04;11.63;;;7.43;;
7917;SDS011;4004;42.624;23.386;2023-11-21T07:35:31;17.27;;;7.23;;
7917;SDS011;4004;42.624;23.386;2023-11-21T07:37:59;11.33;;;7.87;;
7917;SDS011;4004;42.624;23.386;2023-11-21T07:40:26;9.13;;;7.27;;
7917;SDS011;4004;42.624;23.386;2023-11-21T07:42:53;10.77;;;7.90;;
7917;SDS011;4004;42.624;23.386;2023-11-21T07:45:22;10.40;;;7.43;;
7917;SDS011;4004;42.624;23.386;2023-11-21T07:47:50;11.73;;;7.63;;
7917;SDS011;4004;42.624;23.386;2023-11-21T07:50:17;10.83;;;8.40;;
7917;SDS011;4004;42.624;23.386;2023-11-21T07:52:45;16.77;;;8.30;;
7917;SDS011;4004;42.624;23.386;2023-11-21T07:55:12;14.63;;;9.07;;
7917;SDS011;4004;42.624;23.386;2023-11-21T07:57:39;15.10;;;9.90;;
7917;SDS011;4004;42.624;23.386;2023-11-21T08:00:06;11.53;;;9.10;;
7917;SDS011;4004;42.624;23.386;2023-11-21T08:02:37;16.17;;;9.57;;
7917;SDS011;4004;42.624;23.386;2023-11-21T08:05:06;11.87;;;7.90;;
7917;SDS011;4004;42.624;23.386;2023-11-21T08:07:33;10.53;;;6.40;;
7917;SDS011;4004;42.624;23.386;2023-11-21T08:09:59;10.47;;;7.20;;
7917;SDS011;4004;42.624;23.386;2023-11-21T08:12:26;13.33;;;6.57;;
7917;SDS011;4004;42.624;23.386;2023-11-21T08:14:53;14.60;;;7.57;;
7917;SDS011;4004;42.624;23.386;2023-11-21T08:17:20;13.00;;;8.23;;
7917;SDS011;4004;42.624;23.386;2023-11-21T08:19:46;14.17;;;8.37;;
7917;SDS011;4004;42.624;23.386;2023-11-21T08:22:15;20.80;;;8.53;;
7917;SDS011;4004;42.624;23.386;2023-11-21T08:24:43;17.03;;;9.13;;
7917;SDS011;4004;42.624;23.386;2023-11-21T08:27:11;15.30;;;8.43;;
7917;SDS011;4004;42.624;23.386;2023-11-21T08:29:40;11.97;;;7.27;;
7917;SDS011;4004;42.624;23.386;2023-11-21T08:32:07;18.67;;;7.77;;
7917;SDS011;4004;42.624;23.386;2023-11-21T08:34:34;17.77;;;8.67;;
7917;SDS011;4004;42.624;23.386;2023-11-21T08:37:01;15.10;;;8.70;;
7917;SDS011;4004;42.624;23.386;2023-11-21T08:39:29;20.80;;;7.97;;
7917;SDS011;4004;42.624;23.386;2023-11-21T08:41:56;19.07;;;8.43;;
7917;SDS011;4004;42.624;23.386;2023-11-21T08:44:23;15.20;;;9.23;;
7917;SDS011;4004;42.624;23.386;2023-11-21T08:46:50;23.23;;;8.97;;
7917;SDS011;4004;42.624;23.386;2023-11-21T08:49:17;14.40;;;8.73;;
7917;SDS011;4004;42.624;23.386;2023-11-21T08:51:44;17.93;;;8.80;;
7917;SDS011;4004;42.624;23.386;2023-11-21T08:54:11;11.57;;;7.97;;
7917;SDS011;4004;42.624;23.386;2023-11-21T08:56:39;15.10;;;8.23;;
7917;SDS011;4004;42.624;23.386;2023-11-21T08:59:06;18.10;;;8.53;;
7917;SDS011;4004;42.624;23.386;2023-11-21T09:01:33;14.70;;;8.57;;
7917;SDS011;4004;42.624;23.386;2023-11-21T09:04:00;10.03;;;7.80;;
7917;SDS011;4004;42.624;23.386;2023-11-21T09:06:27;11.63;;;8.60;;
7917;SDS011;4004;42.624;23.386;2023-11-21T09:08:54;14.20;;;9.90;;
7917;SDS011;4004;42.624;23.386;2023-11-21T09:11:21;23.43;;;13.70;;
7917;SDS011;4004;42.624;23.386;2023-11-21T09:13:51;19.90;;;13.67;;
7917;SDS011;4004;42.624;23.386;2023-11-21T09:16:19;20.07;;;14.83;;
7917;SDS011;4004;42.624;23.386;2023-11-21T09:18:46;22.77;;;13.90;;
7917;SDS011;4004;42.624;23.386;2023-11-21T09:21:12;20.03;;;13.33;;
7917;SDS011;4004;42.624;23.386;2023-11-21T09:23:39;20.27;;;13.50;;
7917;SDS011;4004;42.624;23.386;2023-11-21T09:26:06;17.37;;;12.90;;
7917;SDS011;4004;42.624;23.386;2023-11-21T09:28:33;19.87;;;13.27;;
7917;SDS011;4004;42.624;23.386;2023-11-21T09:31:04;18.77;;;12.73;;
7917;SDS011;4004;42.624;23.386;2023-11-21T09:33:34;19.87;;;12.90;;
7917;SDS011;4004;42.624;23.386;2023-11-21T09:36:00;21.57;;;13.53;;
7917;SDS011;4004;42.624;23.386;2023-11-21T09:38:29;18.97;;;12.77;;
7917;SDS011;4004;42.624;23.386;2023-11-21T09:40:56;16.00;;;12.33;;
7917;SDS011;4004;42.624;23.386;2023-11-21T09:43:24;23.20;;;12.63;;
7917;SDS011;4004;42.624;23.386;2023-11-21T09:45:56;22.97;;;13.10;;
7917;SDS011;4004;42.624;23.386;2023-11-21T09:48:27;13.80;;;10.73;;
7917;SDS011;4004;42.624;23.386;2023-11-21T09:50:57;13.43;;;9.73;;
7917;SDS011;4004;42.624;23.386;2023-11-21T09:53:26;15.80;;;10.80;;
7917;SDS011;4004;42.624;23.386;2023-11-21T09:55:57;15.70;;;9.70;;
7917;SDS011;4004;42.624;23.386;2023-11-21T09:58:25;15.77;;;10.43;;
7917;SDS011;4004;42.624;23.386;2023-11-21T10:00:54;15.73;;;9.87;;
7917;SDS011;4004;42.624;23.386;2023-11-21T10:03:23;13.27;;;9.63;;
7917;SDS011;4004;42.624;23.386;2023-11-21T10:05:52;14.20;;;9.20;;
7917;SDS011;4004;42.624;23.386;2023-11-21T10:08:20;12.90;;;9.07;;
7917;SDS011;4004;42.624;23.386;2023-11-21T10:10:51;12.70;;;9.00;;
7917;SDS011;4004;42.624;23.386;2023-11-21T10:13:20;13.80;;;9.77;;
7917;SDS011;4004;42.624;23.386;2023-11-21T10:15:49;12.67;;;10.17;;
7917;SDS011;4004;42.624;23.386;2023-11-21T10:18:17;15.73;;;9.57;;
7917;SDS011;4004;42.624;23.386;2023-11-21T10:20:44;15.00;;;9.53;;
7917;SDS011;4004;42.624;23.386;2023-11-21T10:23:18;14.63;;;9.03;;
7917;SDS011;4004;42.624;23.386;2023-11-21T10:25:46;13.97;;;8.60;;
7917;SDS011;4004;42.624;23.386;2023-11-21T10:28:13;13.07;;;9.30;;
7917;SDS011;4004;42.624;23.386;2023-11-21T10:30:40;13.63;;;8.43;;
7917;SDS011;4004;42.624;23.386;2023-11-21T10:33:07;13.60;;;8.50;;
7917;SDS011;4004;42.624;23.386;2023-11-21T10:35:43;12.60;;;7.87;;
7917;SDS011;4004;42.624;23.386;2023-11-21T10:38:16;15.97;;;8.57;;
7917;SDS011;4004;42.624;23.386;2023-11-21T10:40:46;15.20;;;10.07;;
7917;SDS011;4004;42.624;23.386;2023-11-21T10:43:14;23.50;;;10.53;;
7917;SDS011;4004;42.624;23.386;2023-11-21T10:45:41;17.20;;;9.50;;
7917;SDS011;4004;42.624;23.386;2023-11-21T10:48:09;14.33;;;8.50;;
7917;SDS011;4004;42.624;23.386;2023-11-21T10:50:36;18.20;;;9.07;;
7917;SDS011;4004;42.624;23.386;2023-11-21T10:53:04;15.50;;;8.17;;
7917;SDS011;4004;42.624;23.386;2023-11-21T10:55:33;11.67;;;9.00;;
7917;SDS011;4004;42.624;23.386;2023-11-21T10:58:01;11.87;;;8.97;;
7917;SDS011;4004;42.624;23.386;2023-11-21T11:00:30;11.20;;;8.83;;
7917;SDS011;4004;42.624;23.386;2023-11-21T11:02:57;16.53;;;8.87;;
7917;SDS011;4004;42.624;23.386;2023-11-21T11:05:26;16.87;;;9.20;;
7917;SDS011;4004;42.624;23.386;2023-11-21T11:07:57;14.83;;;9.47;;
7917;SDS011;4004;42.624;23.386;2023-11-21T11:10:26;13.93;;;9.13;;
7917;SDS011;4004;42.624;23.386;2023-11-21T11:12:56;13.40;;;9.63;;
7917;SDS011;4004;42.624;23.386;2023-11-21T11:15:23;16.50;;;9.70;;
7917;SDS011;4004;42.624;23.386;2023-11-21T11:17:51;15.23;;;9.57;;
7917;SDS011;4004;42.624;23.386;2023-11-21T11:20:22;17.93;;;10.23;;
7917;SDS011;4004;42.624;23.386;2023-11-21T11:23:07;22.70;;;11.43;;
7917;SDS011;4004;42.624;23.386;2023-11-21T11:25:51;16.87;;;10.50;;
7917;SDS011;4004;42.624;23.386;2023-11-21T11:28:35;15.83;;;12.00;;
7917;SDS011;4004;42.624;23.386;2023-11-21T11:31:10;21.03;;;12.07;;
7917;SDS011;4004;42.624;23.386;2023-11-21T11:33:45;24.00;;;12.33;;
7917;SDS011;4004;42.624;23.386;2023-11-21T11:36:21;17.43;;;12.63;;
7917;SDS011;4004;42.624;23.386;2023-11-21T11:38:51;18.47;;;13.33;;
7917;SDS011;4004;42.624;23.386;2023-11-21T11:41:24;21.27;;;13.27;;
7917;SDS011;4004;42.624;23.386;2023-11-21T11:43:54;24.83;;;14.40;;
7917;SDS011;4004;42.624;23.386;2023-11-21T11:46:21;21.70;;;14.43;;
7917;SDS011;4004;42.624;23.386;2023-11-21T11:49:06;22.97;;;13.70;;
7917;SDS011;4004;42.624;23.386;2023-11-21T11:51:33;29.17;;;14.80;;
7917;SDS011;4004;42.624;23.386;2023-11-21T11:54:01;24.77;;;13.83;;
7917;SDS011;4004;42.624;23.386;2023-11-21T11:56:29;20.33;;;13.00;;
7917;SDS011;4004;42.624;23.386;2023-11-21T11:59:01;21.73;;;12.17;;
7917;SDS011;4004;42.624;23.386;2023-11-21T12:01:29;21.17;;;12.53;;
7917;SDS011;4004;42.624;23.386;2023-11-21T12:06:56;18.57;;;12.03;;
7917;SDS011;4004;42.624;23.386;2023-11-21T12:09:25;21.77;;;12.90;;
7917;SDS011;4004;42.624;23.386;2023-11-21T12:11:53;19.73;;;13.27;;
7917;SDS011;4004;42.624;23.386;2023-11-21T12:14:23;22.50;;;14.10;;
7917;SDS011;4004;42.624;23.386;2023-11-21T12:16:50;22.23;;;11.30;;
7917;SDS011;4004;42.624;23.386;2023-11-21T12:19:18;18.43;;;13.43;;
7917;SDS011;4004;42.624;23.386;2023-11-21T12:21:47;26.53;;;12.53;;
7917;SDS011;4004;42.624;23.386;2023-11-21T12:24:15;17.67;;;13.00;;
7917;SDS011;4004;42.624;23.386;2023-11-21T12:26:42;19.60;;;12.43;;
7917;SDS011;4004;42.624;23.386;2023-11-21T12:29:10;19.50;;;13.50;;
7917;SDS011;4004;42.624;23.386;2023-11-21T12:31:38;17.60;;;12.40;;
7917;SDS011;4004;42.624;23.386;2023-11-21T12:34:06;17.07;;;12.80;;
7917;SDS011;4004;42.624;23.386;2023-11-21T12:36:36;19.80;;;13.63;;
7917;SDS011;4004;42.624;23.386;2023-11-21T12:39:03;24.17;;;14.87;;
7917;SDS011;4004;42.624;23.386;2023-11-21T12:41:31;24.43;;;14.63;;
7917;SDS011;4004;42.624;23.386;2023-11-21T12:43:57;24.77;;;13.83;;
7917;SDS011;4004;42.624;23.386;2023-11-21T12:46:24;31.03;;;15.23;;
7917;SDS011;4004;42.624;23.386;2023-11-21T12:48:55;18.57;;;14.60;;
7917;SDS011;4004;42.624;23.386;2023-11-21T12:51:23;23.60;;;15.93;;
7917;SDS011;4004;42.624;23.386;2023-11-21T12:53:51;25.90;;;15.67;;
7917;SDS011;4004;42.624;23.386;2023-11-21T12:56:19;26.80;;;16.13;;
7917;SDS011;4004;42.624;23.386;2023-11-21T12:58:49;23.00;;;17.00;;
7917;SDS011;4004;42.624;23.386;2023-11-21T13:01:17;21.93;;;16.33;;
7917;SDS011;4004;42.624;23.386;2023-11-21T13:03:46;25.97;;;16.50;;
7917;SDS011;4004;42.624;23.386;2023-11-21T13:06:17;37.03;;;19.10;;
7917;SDS011;4004;42.624;23.386;2023-11-21T13:08:49;31.17;;;18.70;;
7917;SDS011;4004;42.624;23.386;2023-11-21T13:11:16;26.80;;;17.70;;
7917;SDS011;4004;42.624;23.386;2023-11-21T13:13:44;23.57;;;16.97;;
7917;SDS011;4004;42.624;23.386;2023-11-21T13:16:10;29.37;;;19.33;;
7917;SDS011;4004;42.624;23.386;2023-11-21T13:18:38;23.63;;;17.50;;
7917;SDS011;4004;42.624;23.386;2023-11-21T13:21:07;28.57;;;18.87;;
7917;SDS011;4004;42.624;23.386;2023-11-21T13:23:40;22.27;;;17.37;;
7917;SDS011;4004;42.624;23.386;2023-11-21T13:26:08;26.77;;;18.20;;
7917;SDS011;4004;42.624;23.386;2023-11-21T13:28:35;29.17;;;18.73;;
7917;SDS011;4004;42.624;23.386;2023-11-21T13:31:03;35.03;;;18.67;;
7917;SDS011;4004;42.624;23.386;2023-11-21T13:33:45;27.17;;;18.70;;
7917;SDS011;4004;42.624;23.386;2023-11-21T13:36:16;30.37;;;20.07;;
7917;SDS011;4004;42.624;23.386;2023-11-21T13:38:49;23.53;;;19.73;;
7917;SDS011;4004;42.624;23.386;2023-11-21T13:41:17;32.90;;;21.63;;
7917;SDS011;4004;42.624;23.386;2023-11-21T13:43:45;27.40;;;19.83;;
7917;SDS011;4004;42.624;23.386;2023-11-21T13:46:17;33.77;;;21.00;;
7917;SDS011;4004;42.624;23.386;2023-11-21T13:48:47;36.73;;;21.63;;
7917;SDS011;4004;42.624;23.386;2023-11-21T13:51:16;31.60;;;21.77;;
7917;SDS011;4004;42.624;23.386;2023-11-21T13:53:43;30.93;;;22.90;;
7917;SDS011;4004;42.624;23.386;2023-11-21T13:56:14;44.40;;;22.67;;
7917;SDS011;4004;42.624;23.386;2023-11-21T13:58:44;35.17;;;23.40;;
7917;SDS011;4004;42.624;23.386;2023-11-21T14:01:15;35.03;;;23.53;;
7917;SDS011;4004;42.624;23.386;2023-11-21T14:04:06;33.53;;;23.67;;
7917;SDS011;4004;42.624;23.386;2023-11-21T14:06:45;36.20;;;22.90;;
7917;SDS011;4004;42.624;23.386;2023-11-21T14:09:13;30.80;;;21.17;;
7917;SDS011;4004;42.624;23.386;2023-11-21T14:11:48;30.83;;;21.23;;
7917;SDS011;4004;42.624;23.386;2023-11-21T14:14:17;32.17;;;20.00;;
7917;SDS011;4004;42.624;23.386;2023-11-21T14:16:44;38.20;;;20.53;;
7917;SDS011;4004;42.624;23.386;2023-11-21T14:19:11;31.37;;;21.73;;
7917;SDS011;4004;42.624;23.386;2023-11-21T14:21:41;33.13;;;21.43;;
7917;SDS011;4004;42.624;23.386;2023-11-21T14:24:09;38.83;;;22.00;;
7917;SDS011;4004;42.624;23.386;2023-11-21T14:26:38;33.13;;;22.23;;
7917;SDS011;4004;42.624;23.386;2023-11-21T14:29:07;33.13;;;21.70;;
7917;SDS011;4004;42.624;23.386;2023-11-21T14:31:36;37.73;;;22.23;;
7917;SDS011;4004;42.624;23.386;2023-11-21T14:34:03;38.00;;;22.57;;
7917;SDS011;4004;42.624;23.386;2023-11-21T14:36:31;39.73;;;22.33;;
7917;SDS011;4004;42.624;23.386;2023-11-21T14:38:58;35.30;;;20.77;;
7917;SDS011;4004;42.624;23.386;2023-11-21T14:41:25;33.50;;;22.37;;
7917;SDS011;4004;42.624;23.386;2023-11-21T14:43:53;35.47;;;24.03;;
7917;SDS011;4004;42.624;23.386;2023-11-21T14:46:23;36.67;;;24.30;;
7917;SDS011;4004;42.624;23.386;2023-11-21T14:48:50;34.17;;;21.77;;
7917;SDS011;4004;42.624;23.386;2023-11-21T14:51:25;31.37;;;21.70;;
7917;SDS011;4004;42.624;23.386;2023-11-21T14:53:52;33.43;;;22.53;;
7917;SDS011;4004;42.624;23.386;2023-11-21T14:56:19;33.53;;;22.43;;